Time;durP1;ratioP1;P1;durP2;ratioP2;P2;SDS_P1;SDS_P2;PMS_P1;PMS_P2;Temp;Humidity;BMP_temperature;BMP_pressure;BME280_temperature;BME280_humidity;BME280_pressure;Samples;Min_cycle;Max_cycle;Signal;HPM_P1;HPM_P2
2023/11/07 00:00:46;;;;;;;18.20;10.50;;;;;;;9.01;68.66;98664.45;234179;214;150476;-63
2023/11/07 00:06:12;;;;;;;18.40;10.40;;;;;;;8.94;68.80;98660.27;234156;217;139084;-64
2023/11/07 00:11:16;;;;;;;19.50;11.00;;;;;;;8.93;68.95;98663.02;234245;216;137504;-63
2023/11/07 00:16:19;;;;;;;18.70;10.30;;;;;;;8.93;68.80;98669.21;234353;216;149510;-65
2023/11/07 00:21:23;;;;;;;24.00;12.20;;;;;;;8.88;68.33;98680.84;234225;216;139488;-64
2023/11/07 00:26:26;;;;;;;20.60;12.10;;;;;;;8.87;68.22;98689.22;234318;215;137780;-63
2023/11/07 00:31:30;;;;;;;22.10;12.50;;;;;;;8.86;67.97;98688.60;234180;215;149193;-65
2023/11/07 00:36:33;;;;;;;24.60;12.60;;;;;;;8.80;67.65;98688.94;233931;216;139878;-64
2023/11/07 00:41:37;;;;;;;21.20;12.40;;;;;;;8.69;67.76;98686.93;234150;214;138348;-64
2023/11/07 00:46:40;;;;;;;20.80;12.60;;;;;;;8.60;67.93;98690.30;234225;216;150318;-64
2023/11/07 00:51:43;;;;;;;20.40;11.60;;;;;;;8.50;68.06;98688.05;234279;214;138931;-64
2023/11/07 00:56:46;;;;;;;21.00;12.20;;;;;;;8.44;68.42;98688.11;234244;217;137711;-64
2023/11/07 01:01:50;;;;;;;21.50;11.70;;;;;;;8.41;68.74;98684.89;234186;216;150770;-64
2023/11/07 01:06:53;;;;;;;21.10;11.90;;;;;;;8.32;68.62;98691.04;234177;216;140047;-64
2023/11/07 01:11:57;;;;;;;18.40;11.60;;;;;;;8.22;68.94;98697.09;234372;216;137689;-66
2023/11/07 01:17:00;;;;;;;24.00;12.60;;;;;;;8.17;69.11;98698.27;234282;216;150112;-64
2023/11/07 01:22:04;;;;;;;21.10;12.10;;;;;;;8.18;69.31;98701.39;234314;216;139288;-63
2023/11/07 01:27:07;;;;;;;25.10;12.50;;;;;;;8.16;69.24;98698.00;234244;216;140231;-63
2023/11/07 01:32:10;;;;;;;20.20;12.00;;;;;;;8.12;69.28;98694.52;234243;216;149403;-63
2023/11/07 01:37:13;;;;;;;20.40;12.30;;;;;;;8.18;69.38;98689.02;234216;212;139356;-63
2023/11/07 01:42:17;;;;;;;25.60;12.00;;;;;;;8.21;69.16;98694.87;234165;215;137613;-63
2023/11/07 01:47:23;;;;;;;20.50;12.90;;;;;;;8.16;69.08;98694.08;234238;216;150097;-63
2023/11/07 01:52:26;;;;;;;18.80;12.40;;;;;;;8.12;69.37;98697.69;234278;216;140230;-63
2023/11/07 01:57:30;;;;;;;20.00;11.90;;;;;;;8.14;69.50;98707.66;234326;216;137635;-63
2023/11/07 02:02:34;;;;;;;19.10;13.10;;;;;;;8.14;69.59;98712.27;234228;216;149500;-63
2023/11/07 02:07:38;;;;;;;30.70;13.70;;;;;;;8.09;69.38;98712.70;234167;216;140202;-64
2023/11/07 02:12:41;;;;;;;23.90;14.20;;;;;;;8.03;69.48;98711.77;234178;214;138335;-64
2023/11/07 02:17:44;;;;;;;24.60;12.90;;;;;;;8.01;69.70;98713.83;234260;216;149414;-63
2023/11/07 02:22:53;;;;;;;21.40;12.50;;;;;;;8.07;69.90;98708.93;234201;214;139268;-63
2023/11/07 02:27:56;;;;;;;23.60;13.30;;;;;;;8.12;69.74;98707.94;234284;216;137522;-64
2023/11/07 02:33:04;;;;;;;23.70;13.30;;;;;;;8.18;69.62;98702.46;234277;216;149312;-65
2023/11/07 02:38:08;;;;;;;22.50;13.70;;;;;;;8.19;69.44;98705.06;234282;214;140438;-64
2023/11/07 02:43:11;;;;;;;22.60;14.10;;;;;;;8.16;69.37;98718.15;234239;216;137426;-64
2023/11/07 02:48:14;;;;;;;24.50;14.50;;;;;;;8.11;69.47;98720.56;234262;215;149442;-64
2023/11/07 02:53:18;;;;;;;25.60;14.20;;;;;;;8.03;69.32;98720.62;234183;214;138722;-63
2023/11/07 02:58:21;;;;;;;34.80;14.40;;;;;;;7.97;68.99;98719.35;234372;216;137677;-63
2023/11/07 03:03:25;;;;;;;31.10;15.00;;;;;;;7.88;68.93;98719.73;234294;214;149484;-64
2023/11/07 03:08:28;;;;;;;28.80;13.80;;;;;;;7.78;69.09;98729.11;234177;214;139423;-63
2023/11/07 03:13:34;;;;;;;25.00;14.00;;;;;;;7.72;69.19;98726.08;234224;215;140045;-63
2023/11/07 03:18:38;;;;;;;25.60;14.00;;;;;;;7.68;69.31;98723.13;234328;216;150206;-63
2023/11/07 03:23:41;;;;;;;24.30;13.10;;;;;;;7.59;69.31;98716.20;234182;215;139669;-63
2023/11/07 03:28:44;;;;;;;23.00;13.10;;;;;;;7.55;69.66;98721.87;234190;217;138566;-64
2023/11/07 03:33:47;;;;;;;21.80;13.20;;;;;;;7.64;69.79;98726.52;234311;216;149509;-64
2023/11/07 03:38:51;;;;;;;110.30;75.70;;;;;;;7.73;69.88;98724.05;234156;216;139489;-65
2023/11/07 03:43:54;;;;;;;37.10;23.60;;;;;;;7.88;69.91;98728.73;234224;214;138742;-64
2023/11/07 03:48:58;;;;;;;29.30;14.50;;;;;;;7.85;69.34;98728.02;234188;217;150018;-64
2023/11/07 03:54:01;;;;;;;21.90;13.60;;;;;;;7.78;69.64;98726.28;234085;216;139317;-64
2023/11/07 03:59:04;;;;;;;31.60;13.80;;;;;;;7.68;68.83;98721.16;234241;216;152488;-63
2023/11/07 04:04:08;;;;;;;35.50;13.40;;;;;;;7.55;68.62;98725.96;234381;216;150102;-64
2023/11/07 04:09:11;;;;;;;39.90;13.50;;;;;;;7.47;68.67;98733.08;234237;214;139715;-63
2023/11/07 04:14:17;;;;;;;24.60;11.20;;;;;;;7.38;68.70;98740.30;234046;216;138956;-63
2023/11/07 04:19:21;;;;;;;122.50;86.50;;;;;;;7.33;68.97;98744.27;234225;216;149980;-63
2023/11/07 04:24:25;;;;;;;23.40;12.50;;;;;;;7.34;69.25;98744.90;234216;214;140821;-64
2023/11/07 04:29:28;;;;;;;22.80;10.90;;;;;;;7.30;68.83;98741.80;234214;214;142119;-64
2023/11/07 04:34:32;;;;;;;23.20;11.10;;;;;;;7.27;68.66;98744.61;234305;214;150405;-65
2023/11/07 04:39:35;;;;;;;19.50;11.10;;;;;;;7.29;68.65;98738.48;234278;216;139843;-64
2023/11/07 04:44:39;;;;;;;19.70;10.80;;;;;;;7.29;68.79;98736.71;234203;216;137405;-64
2023/11/07 04:49:43;;;;;;;64.60;41.70;;;;;;;7.25;68.83;98737.45;234145;215;150153;-65
2023/11/07 04:54:46;;;;;;;25.20;12.20;;;;;;;7.26;69.28;98739.16;234278;216;138984;-63
2023/11/07 04:59:50;;;;;;;22.80;11.30;;;;;;;7.19;68.49;98736.74;234177;215;137229;-64
2023/11/07 05:04:53;;;;;;;25.60;12.00;;;;;;;7.10;68.39;98728.73;234304;215;149381;-63
2023/11/07 05:09:59;;;;;;;29.60;10.90;;;;;;;7.00;68.50;98738.27;234298;215;140114;-63
2023/11/07 05:15:04;;;;;;;18.10;10.80;;;;;;;6.94;68.69;98748.83;234300;216;138340;-63
2023/11/07 05:20:09;;;;;;;31.50;11.90;;;;;;;6.89;68.51;98747.83;234268;216;149792;-64
2023/11/07 05:25:12;;;;;;;27.00;11.10;;;;;;;6.78;68.58;98750.16;234158;216;139266;-63
2023/11/07 05:30:15;;;;;;;18.30;10.10;;;;;;;6.72;68.64;98757.66;234278;216;138187;-63
2023/11/07 05:35:18;;;;;;;15.50;9.40;;;;;;;6.69;68.93;98760.49;234174;216;149315;-63
2023/11/07 05:40:23;;;;;;;21.50;9.90;;;;;;;6.68;68.89;98768.11;234293;216;141411;-63
2023/11/07 05:45:27;;;;;;;19.10;10.80;;;;;;;6.75;69.12;98772.00;234360;216;139562;-63
2023/11/07 05:50:30;;;;;;;18.10;10.20;;;;;;;6.80;69.06;98777.73;234259;216;149530;-63
2023/11/07 05:55:34;;;;;;;25.20;11.40;;;;;;;6.83;69.29;98787.10;234246;216;141769;-62
2023/11/07 06:00:38;;;;;;;22.40;11.20;;;;;;;6.83;69.31;98796.79;234177;216;140125;-62
2023/11/07 06:05:45;;;;;;;22.30;11.20;;;;;;;6.82;69.33;98806.70;234294;216;150015;-62
2023/11/07 06:10:48;;;;;;;20.00;10.20;;;;;;;6.82;69.45;98812.70;234184;216;139206;-62
2023/11/07 06:15:53;;;;;;;16.70;10.10;;;;;;;6.80;69.18;98815.98;234304;216;138108;-63
2023/11/07 06:20:56;;;;;;;17.90;10.60;;;;;;;6.76;69.21;98825.67;234207;216;149037;-63
2023/11/07 06:25:59;;;;;;;19.90;10.20;;;;;;;6.73;69.35;98828.14;234137;215;138928;-63
2023/11/07 06:31:03;;;;;;;15.30;10.20;;;;;;;6.74;69.65;98829.54;234170;216;138257;-63
2023/11/07 06:36:07;;;;;;;15.90;9.70;;;;;;;6.80;70.21;98831.65;234188;216;149189;-62
2023/11/07 06:41:10;;;;;;;15.60;9.60;;;;;;;6.89;70.55;98840.92;234210;216;139942;-62
2023/11/07 06:46:14;;;;;;;15.10;10.30;;;;;;;7.04;70.95;98847.58;234384;216;137946;-62
2023/11/07 06:51:21;;;;;;;17.30;10.40;;;;;;;7.22;71.30;98851.09;234202;215;150001;-62
2023/11/07 06:56:25;;;;;;;19.10;11.20;;;;;;;7.36;71.31;98855.42;234202;214;138435;-62
2023/11/07 07:01:29;;;;;;;22.70;11.90;;;;;;;7.51;71.37;98860.66;234214;213;137728;-62
2023/11/07 07:06:35;;;;;;;22.70;11.60;;;;;;;7.60;71.49;98868.33;234259;216;149427;-61
2023/11/07 07:11:40;;;;;;;23.30;13.00;;;;;;;7.69;71.55;98866.61;234164;216;138062;-62
2023/11/07 07:16:43;;;;;;;20.50;11.40;;;;;;;7.77;71.63;98872.71;234217;216;138543;-62
2023/11/07 07:21:47;;;;;;;20.20;11.10;;;;;;;7.85;71.70;98877.27;234303;216;150056;-62
2023/11/07 07:26:50;;;;;;;20.90;11.40;;;;;;;7.96;71.81;98881.77;234153;216;139192;-61
2023/11/07 07:31:56;;;;;;;28.50;11.00;;;;;;;8.09;71.84;98881.05;234113;216;138890;-61
2023/11/07 07:36:59;;;;;;;20.40;10.40;;;;;;;8.29;71.75;98881.73;234158;216;149395;-62
2023/11/07 07:42:09;;;;;;;24.10;10.70;;;;;;;8.53;71.64;98883.80;234267;214;140286;-63
2023/11/07 07:47:15;;;;;;;21.20;9.50;;;;;;;8.75;71.68;98884.69;234122;214;138276;-63
2023/11/07 07:52:22;;;;;;;21.00;9.60;;;;;;;9.05;71.95;98884.33;234332;214;149420;-63
2023/11/07 07:57:26;;;;;;;17.30;7.00;;;;;;;9.47;71.95;98885.77;234173;213;139884;-63
2023/11/07 08:02:29;;;;;;;13.30;6.60;;;;;;;9.85;71.62;98883.98;234264;214;138063;-62
2023/11/07 08:07:35;;;;;;;11.70;6.30;;;;;;;10.19;71.31;98882.61;234186;216;149652;-62
2023/11/07 08:12:38;;;;;;;10.80;5.00;;;;;;;10.47;70.92;98883.52;234123;214;140031;-63
2023/11/07 08:17:41;;;;;;;7.70;4.40;;;;;;;10.71;69.95;98884.40;234202;215;138959;-62
2023/11/07 08:22:47;;;;;;;9.00;4.40;;;;;;;11.03;69.45;98883.60;233954;214;259002;-61
2023/11/07 08:27:50;;;;;;;14.10;5.50;;;;;;;11.36;68.44;98889.20;234284;214;138671;-62
2023/11/07 08:32:54;;;;;;;12.30;5.10;;;;;;;11.69;67.86;98892.39;234249;215;138208;-62
2023/11/07 08:37:57;;;;;;;12.00;4.80;;;;;;;11.92;66.85;98900.48;234216;213;150478;-63
2023/11/07 08:43:00;;;;;;;9.90;4.90;;;;;;;12.15;66.15;98901.52;234303;216;139251;-62
2023/11/07 08:48:04;;;;;;;11.90;5.30;;;;;;;12.32;64.99;98902.06;234202;213;140035;-62
2023/11/07 08:53:07;;;;;;;12.60;5.30;;;;;;;12.44;64.34;98905.30;234238;216;150072;-60
2023/11/07 08:58:10;;;;;;;10.30;4.80;;;;;;;12.53;63.79;98904.80;234354;215;139765;-60
2023/11/07 09:03:14;;;;;;;9.40;5.00;;;;;;;12.61;63.58;98903.23;234245;214;139987;-60
2023/11/07 09:08:17;;;;;;;10.40;5.10;;;;;;;12.72;63.29;98893.98;234147;213;150704;-59
2023/11/07 09:13:21;;;;;;;8.90;4.10;;;;;;;12.85;62.90;98897.14;234125;209;139488;-59
2023/11/07 09:18:26;;;;;;;9.10;4.30;;;;;;;12.96;62.05;98900.11;234140;216;138558;-60
2023/11/07 09:23:30;;;;;;;;;;;;;;;13.14;61.40;98895.02;234227;216;150546;-60
2023/11/07 09:28:33;;;;;;;152.60;103.60;;;;;;;13.27;60.26;98891.55;234185;215;139465;-60
2023/11/07 09:33:36;;;;;;;7.90;2.90;;;;;;;13.40;58.44;98888.75;234261;214;139156;-59
2023/11/07 09:38:40;;;;;;;4.50;1.50;;;;;;;13.53;57.35;98887.11;234222;214;231758;-60
2023/11/07 09:43:55;;;;;;;2.00;1.20;;;;;;;13.65;56.53;98894.18;234142;214;141440;-60
2023/11/07 09:48:59;;;;;;;3.00;1.30;;;;;;;13.73;55.28;98895.52;234154;216;137181;-60
2023/11/07 09:54:07;;;;;;;6.40;1.40;;;;;;;13.78;54.97;98890.85;234178;216;150619;-63
2023/11/07 09:59:37;;;;;;;11.20;1.40;;;;;;;13.90;54.71;98894.75;234114;215;139626;-63
2023/11/07 10:04:44;;;;;;;4.90;1.20;;;;;;;14.06;54.09;98894.21;233652;213;138391;-63
2023/11/07 10:09:47;;;;;;;8.40;2.00;;;;;;;14.24;52.89;98889.95;234182;214;149419;-63
2023/11/07 10:14:51;;;;;;;5.50;1.30;;;;;;;14.38;52.55;98889.69;234051;210;138842;-63
2023/11/07 10:20:05;;;;;;;208.40;145.80;;;;;;;14.51;52.73;98887.66;234062;214;138214;-62
2023/11/07 10:25:11;;;;;;;4.70;2.70;;;;;;;14.77;53.03;98886.02;234109;209;150791;-64
2023/11/07 10:30:14;;;;;;;;;;;;;;;15.05;52.62;98881.82;234139;215;139211;-60
2023/11/07 10:35:17;;;;;;;7.60;3.40;;;;;;;15.33;53.62;98877.96;234225;214;134067;-58
2023/11/07 10:40:22;;;;;;;8.30;2.70;;;;;;;15.66;53.83;98874.10;234082;214;150541;-56
2023/11/07 10:45:26;;;;;;;5.40;2.90;;;;;;;16.14;54.81;98872.70;234164;214;139585;-59
2023/11/07 10:50:31;;;;;;;4.50;1.40;;;;;;;16.51;53.01;98865.66;234284;209;138396;-59
2023/11/07 10:55:34;;;;;;;;;;;;;;;16.64;50.03;98860.77;234188;214;149839;-59
2023/11/07 11:00:38;;;;;;;4.10;1.40;;;;;;;16.77;49.64;98858.34;234227;215;138819;-59
2023/11/07 11:05:43;;;;;;;4.60;1.30;;;;;;;16.85;48.41;98857.93;234154;210;138250;-58
2023/11/07 11:10:47;;;;;;;3.90;1.30;;;;;;;16.93;48.18;98853.10;234240;209;149043;-56
2023/11/07 11:15:53;;;;;;;2.50;1.20;;;;;;;17.05;47.11;98854.36;234417;213;140534;-59
2023/11/07 11:21:02;;;;;;;;;;;;;;;17.11;47.66;98852.20;234188;209;137928;-59
2023/11/07 11:26:42;;;;;;;3.90;1.30;;;;;;;17.23;46.43;98850.29;234190;213;150268;-58
2023/11/07 11:31:45;;;;;;;2.90;0.90;;;;;;;17.33;46.06;98841.34;234118;213;138825;-60
2023/11/07 11:36:53;;;;;;;2.20;1.10;;;;;;;17.54;45.04;98834.88;234192;215;139012;-59
2023/11/07 11:41:58;;;;;;;6.80;1.20;;;;;;;17.67;44.67;98832.81;234136;216;149418;-59
2023/11/07 11:47:03;;;;;;;;;;;;;;;17.78;44.09;98834.47;234166;214;140335;-58
2023/11/07 11:52:34;;;;;;;4.30;1.20;;;;;;;17.80;43.80;98829.58;234363;214;132692;-58
2023/11/07 11:58:20;;;;;;;1.90;0.90;;;;;;;17.77;43.30;98827.36;234272;214;150534;-58
2023/11/07 12:03:34;;;;;;;2.80;1.10;;;;;;;17.66;44.52;98822.94;234074;215;138746;-59
2023/11/07 12:08:44;;;;;;;3.70;1.40;;;;;;;17.63;43.88;98818.30;234191;215;137799;-62
2023/11/07 12:13:48;;;;;;;4.80;1.10;;;;;;;17.36;41.24;98821.50;234162;214;151502;-62
2023/11/07 12:18:51;;;;;;;4.60;1.00;;;;;;;17.15;40.89;98821.90;234164;216;139510;-61
2023/11/07 12:23:58;;;;;;;3.80;0.90;;;;;;;16.94;41.23;98814.65;234183;213;137578;-62
2023/11/07 12:29:02;;;;;;;1.40;0.80;;;;;;;16.73;41.32;98810.45;234232;214;150087;-62
2023/11/07 12:34:06;;;;;;;2.50;1.00;;;;;;;16.62;41.70;98806.04;233920;214;139235;-63
2023/11/07 12:39:11;;;;;;;1.90;1.00;;;;;;;16.58;41.81;98800.35;234173;214;138096;-63
2023/11/07 12:44:16;;;;;;;2.20;1.10;;;;;;;16.54;41.75;98803.40;234104;215;149487;-62
2023/11/07 12:49:20;;;;;;;3.00;1.10;;;;;;;16.40;41.34;98806.63;234136;215;138720;-62
2023/11/07 12:54:28;;;;;;;2.50;1.20;;;;;;;16.24;41.31;98808.45;234116;216;138525;-63
2023/11/07 12:59:32;;;;;;;7.00;1.30;;;;;;;16.13;41.67;98812.48;234258;214;150014;-63
2023/11/07 13:04:35;;;;;;;3.10;0.80;;;;;;;16.05;41.23;98809.42;234256;215;140028;-64
2023/11/07 13:09:39;;;;;;;3.20;1.10;;;;;;;15.94;41.34;98812.02;234292;216;138227;-62
2023/11/07 13:14:42;;;;;;;2.50;0.90;;;;;;;15.92;41.83;98810.52;234249;214;149241;-63
2023/11/07 13:19:47;;;;;;;7.60;1.50;;;;;;;15.90;41.90;98805.52;234174;216;138908;-62
2023/11/07 13:24:50;;;;;;;2.90;1.50;;;;;;;15.94;42.42;98809.12;234194;216;138155;-63
2023/11/07 13:29:53;;;;;;;6.40;2.00;;;;;;;16.02;42.40;98804.24;234142;213;150330;-63
2023/11/07 13:34:57;;;;;;;5.70;1.40;;;;;;;16.08;42.51;98798.17;234150;215;138792;-63
2023/11/07 13:40:00;;;;;;;4.50;1.10;;;;;;;16.09;42.49;98796.11;234076;209;137931;-63
2023/11/07 13:45:04;;;;;;;4.70;1.20;;;;;;;16.04;42.02;98798.02;234184;212;149369;-63
2023/11/07 13:50:09;;;;;;;2.10;1.10;;;;;;;15.97;41.95;98801.32;234117;209;138926;-61
2023/11/07 13:55:12;;;;;;;4.60;1.10;;;;;;;15.83;42.09;98802.73;234180;208;138138;-62
2023/11/07 14:00:17;;;;;;;3.00;0.90;;;;;;;15.74;42.30;98804.98;234097;210;149500;-62
2023/11/07 14:05:21;;;;;;;5.30;1.00;;;;;;;15.63;42.10;98802.28;233789;209;139938;-62
2023/11/07 14:10:27;;;;;;;4.70;1.50;;;;;;;15.55;42.40;98799.02;234219;213;136992;-62
2023/11/07 14:15:34;;;;;;;2.40;0.90;;;;;;;15.49;42.62;98790.08;234118;213;149331;-62
2023/11/07 14:20:38;;;;;;;4.00;1.10;;;;;;;15.41;42.70;98789.56;234128;209;138876;-62
2023/11/07 14:25:43;;;;;;;217.30;144.00;;;;;;;15.30;42.85;98787.46;234072;213;137279;-61
2023/11/07 14:30:47;;;;;;;11.70;3.40;;;;;;;15.27;43.57;98791.41;234090;208;149268;-63
2023/11/07 14:35:50;;;;;;;6.80;1.70;;;;;;;15.25;43.09;98792.90;234059;209;139093;-63
2023/11/07 14:40:55;;;;;;;5.10;1.40;;;;;;;15.17;43.19;98796.63;234028;213;139630;-62
2023/11/07 14:45:59;;;;;;;8.30;1.80;;;;;;;15.10;43.42;98788.45;234211;215;150272;-62
2023/11/07 14:51:02;;;;;;;3.80;1.70;;;;;;;15.04;43.85;98790.41;234125;213;140140;-63
2023/11/07 14:56:06;;;;;;;5.00;1.60;;;;;;;14.95;44.48;98789.58;234227;209;140571;-63
2023/11/07 15:01:12;;;;;;;7.20;1.60;;;;;;;14.84;44.71;98791.89;234163;214;149313;-63
2023/11/07 15:06:15;;;;;;;4.60;1.40;;;;;;;14.72;46.16;98791.81;234073;213;139215;-63
2023/11/07 15:11:19;;;;;;;8.90;1.70;;;;;;;14.48;47.42;98795.20;234063;214;137824;-62
2023/11/07 15:16:22;;;;;;;13.00;1.80;;;;;;;14.25;48.10;98802.75;234240;214;149500;-63
2023/11/07 15:21:26;;;;;;;6.20;1.70;;;;;;;14.03;48.57;98803.69;234125;213;138773;-63
2023/11/07 15:26:30;;;;;;;7.20;1.60;;;;;;;13.81;49.45;98803.08;234070;214;139437;-62
2023/11/07 15:31:33;;;;;;;110.80;72.60;;;;;;;13.63;50.59;98807.17;234078;209;149591;-62
2023/11/07 15:36:37;;;;;;;18.20;4.30;;;;;;;13.48;49.95;98806.24;234133;213;139027;-62
2023/11/07 15:41:40;;;;;;;30.30;4.00;;;;;;;13.25;50.73;98808.52;234155;209;137337;-61
2023/11/07 15:46:43;;;;;;;19.70;3.80;;;;;;;13.03;51.47;98805.00;234123;213;149414;-62
2023/11/07 15:51:47;;;;;;;18.90;3.70;;;;;;;12.82;51.97;98810.14;234208;213;141009;-62
2023/11/07 15:56:50;;;;;;;14.70;3.40;;;;;;;12.72;52.45;98807.87;234176;209;138638;-62
2023/11/07 16:01:54;;;;;;;24.70;3.90;;;;;;;12.62;53.13;98808.64;234210;209;151032;-62
2023/11/07 16:06:59;;;;;;;28.40;5.10;;;;;;;12.52;53.69;98809.20;234189;214;139189;-62
2023/11/07 16:12:05;;;;;;;24.60;5.30;;;;;;;12.42;54.14;98820.08;234140;213;138891;-62
2023/11/07 16:17:08;;;;;;;27.80;4.70;;;;;;;12.32;54.24;98821.69;234275;217;150825;-61
2023/11/07 16:22:12;;;;;;;19.60;4.30;;;;;;;12.21;54.91;98820.55;234287;216;138801;-61
2023/11/07 16:27:16;;;;;;;13.50;4.30;;;;;;;12.09;55.15;98823.48;234189;216;139710;-63
2023/11/07 16:32:20;;;;;;;19.80;3.90;;;;;;;12.02;55.59;98818.52;234227;216;149116;-62
2023/11/07 16:37:23;;;;;;;15.30;3.70;;;;;;;11.92;56.06;98820.63;234222;215;138670;-62
2023/11/07 16:42:26;;;;;;;20.10;4.40;;;;;;;11.81;56.29;98827.27;234105;209;137873;-62
2023/11/07 16:47:31;;;;;;;14.20;3.60;;;;;;;11.69;56.71;98824.86;234036;213;150520;-63
2023/11/07 16:52:39;;;;;;;22.90;8.30;;;;;;;11.55;57.13;98826.40;234145;213;140012;-62
2023/11/07 16:57:44;;;;;;;19.20;4.90;;;;;;;11.46;57.46;98825.77;234317;209;137501;-62
2023/11/07 17:02:48;;;;;;;25.40;5.50;;;;;;;11.38;57.95;98824.56;234189;214;149829;-62
2023/11/07 17:07:52;;;;;;;19.90;5.20;;;;;;;11.34;58.21;98821.95;234051;214;140295;-62
2023/11/07 17:12:55;;;;;;;19.20;3.90;;;;;;;11.26;58.50;98821.44;234155;209;137135;-62
2023/11/07 17:17:59;;;;;;;23.00;4.50;;;;;;;11.24;58.94;98831.59;234159;213;150104;-63
2023/11/07 17:23:04;;;;;;;23.40;4.70;;;;;;;11.24;59.19;98841.34;234036;209;139323;-62
2023/11/07 17:28:09;;;;;;;28.90;5.00;;;;;;;11.18;59.45;98842.82;234269;210;137339;-62
2023/11/07 17:33:13;;;;;;;44.50;6.20;;;;;;;11.09;59.73;98840.34;234105;213;149450;-62
2023/11/07 17:38:16;;;;;;;31.40;6.00;;;;;;;11.02;60.12;98841.77;234086;209;138989;-62
2023/11/07 17:43:20;;;;;;;45.80;6.30;;;;;;;10.90;60.15;98839.68;234185;215;137754;-62
2023/11/07 17:48:23;;;;;;;29.70;6.00;;;;;;;10.82;60.37;98839.34;234151;214;149170;-62
2023/11/07 17:53:26;;;;;;;34.90;6.60;;;;;;;10.79;60.92;98843.77;234085;209;140098;-63
2023/11/07 17:58:29;;;;;;;40.90;8.10;;;;;;;10.84;62.09;98839.58;233976;214;137870;-62
2023/11/07 18:03:33;;;;;;;56.60;10.80;;;;;;;10.75;61.57;98841.94;234147;214;150237;-62
2023/11/07 18:08:37;;;;;;;132.80;71.00;;;;;;;10.64;62.27;98847.08;234141;213;139364;-62
2023/11/07 18:13:41;;;;;;;63.50;14.90;;;;;;;10.66;62.35;98850.17;234166;209;138279;-62
2023/11/07 18:18:44;;;;;;;61.10;13.90;;;;;;;10.60;62.13;98848.73;234122;215;149203;-63
2023/11/07 18:24:03;;;;;;;69.70;13.60;;;;;;;10.53;61.92;98845.70;234223;209;141123;-63
2023/11/07 18:29:07;;;;;;;53.30;14.30;;;;;;;10.45;62.04;98843.54;234133;209;138896;-63
2023/11/07 18:34:10;;;;;;;61.90;14.80;;;;;;;10.35;62.49;98848.92;234272;214;149464;-62
2023/11/07 18:39:27;;;;;;;47.90;14.60;;;;;;;10.32;62.57;98850.27;234085;210;139517;-62
2023/11/07 18:44:34;;;;;;;46.40;16.00;;;;;;;10.26;62.63;98845.85;234003;208;138831;-62
2023/11/07 18:49:38;;;;;;;43.40;16.30;;;;;;;10.16;62.78;98841.64;234048;213;150307;-62
2023/11/07 18:54:41;;;;;;;50.10;16.30;;;;;;;10.12;63.11;98837.29;233989;214;139304;-61
2023/11/07 18:59:45;;;;;;;48.80;17.90;;;;;;;10.07;63.20;98834.39;234048;209;140259;-63
2023/11/07 19:04:48;;;;;;;57.20;20.30;;;;;;;10.09;64.02;98837.69;234025;214;149935;-62
2023/11/07 19:09:52;;;;;;;44.00;18.40;;;;;;;10.12;63.79;98836.57;234178;213;138835;-62
2023/11/07 19:14:55;;;;;;;67.70;21.90;;;;;;;10.10;63.79;98832.60;234069;209;137286;-62
2023/11/07 19:19:59;;;;;;;64.90;21.40;;;;;;;10.06;64.01;98828.60;234064;214;149109;-61
2023/11/07 19:25:03;;;;;;;70.40;21.10;;;;;;;10.06;64.09;98830.04;234037;209;139254;-58
2023/11/07 19:30:10;;;;;;;76.60;22.30;;;;;;;10.03;64.39;98825.98;234167;213;138452;-60
2023/11/07 19:35:16;;;;;;;181.50;93.50;;;;;;;10.02;64.84;98827.09;234140;214;150185;-61
2023/11/07 19:40:22;;;;;;;;;;;;;;;10.06;64.95;98829.89;234280;213;139881;-61
2023/11/07 19:45:26;;;;;;;62.10;27.50;;;;;;;10.09;65.05;98833.20;234160;209;133484;-61
2023/11/07 19:50:29;;;;;;;70.80;27.50;;;;;;;10.06;64.58;98832.88;234094;212;150648;-60
2023/11/07 19:55:34;;;;;;;295.70;199.50;;;;;;;10.05;64.97;98836.81;234073;210;139531;-61
2023/11/07 20:00:38;;;;;;;62.90;26.30;;;;;;;10.13;65.12;98830.63;234091;214;138498;-60
2023/11/07 20:05:44;;;;;;;55.40;26.60;;;;;;;10.13;64.57;98828.32;234058;214;149954;-59
2023/11/07 20:10:48;;;;;;;62.40;27.50;;;;;;;10.13;64.57;98826.06;234031;213;140956;-59
2023/11/07 20:15:53;;;;;;;60.80;28.10;;;;;;;10.16;64.64;98828.70;234320;209;138682;-59
2023/11/07 20:20:59;;;;;;;67.30;29.20;;;;;;;10.20;64.58;98830.92;234062;214;150377;-60
2023/11/07 20:26:04;;;;;;;76.30;30.30;;;;;;;10.20;64.55;98834.46;234195;213;139957;-60
2023/11/07 20:31:07;;;;;;;81.20;31.80;;;;;;;10.19;64.81;98837.39;234225;210;137700;-59
2023/11/07 20:36:17;;;;;;;73.90;29.90;;;;;;;10.16;65.31;98837.01;234256;213;149452;-60
2023/11/07 20:41:22;;;;;;;78.00;30.80;;;;;;;10.14;65.61;98844.41;234163;213;139514;-59
2023/11/07 20:46:25;;;;;;;69.10;30.00;;;;;;;10.09;65.84;98839.76;234248;209;138462;-59
2023/11/07 20:51:38;;;;;;;61.40;28.00;;;;;;;10.05;66.30;98838.60;234204;210;150257;-59
2023/11/07 20:56:41;;;;;;;61.00;27.70;;;;;;;10.01;66.65;98841.88;234102;209;140256;-60
2023/11/07 21:01:45;;;;;;;62.60;27.80;;;;;;;10.01;66.86;98845.61;234188;209;138192;-60
2023/11/07 21:06:48;;;;;;;60.50;27.70;;;;;;;9.99;66.95;98840.62;233995;209;150049;-60
2023/11/07 21:11:53;;;;;;;56.40;26.70;;;;;;;9.98;67.15;98847.94;234051;214;141358;-59
2023/11/07 21:16:56;;;;;;;58.00;25.60;;;;;;;9.98;67.42;98850.25;234109;213;138254;-60
2023/11/07 21:22:02;;;;;;;54.60;27.50;;;;;;;10.09;68.13;98833.02;234218;210;149916;-60
2023/11/07 21:27:05;;;;;;;57.40;26.70;;;;;;;10.17;68.39;98815.88;234220;214;139206;-59
2023/11/07 21:32:09;;;;;;;58.10;26.30;;;;;;;10.28;68.38;98802.28;234125;214;138693;-59
2023/11/07 21:37:12;;;;;;;37.70;17.40;;;;;;;10.28;67.55;98831.50;234112;215;149685;-60
2023/11/07 21:42:18;;;;;;;27.70;16.90;;;;;;;10.33;66.81;98833.35;234087;214;139880;-60
2023/11/07 21:47:21;;;;;;;28.00;16.90;;;;;;;10.36;66.46;98826.23;234237;214;139285;-60
2023/11/07 21:52:25;;;;;;;33.60;17.00;;;;;;;10.38;66.82;98820.71;234238;214;149406;-60
2023/11/07 21:57:29;;;;;;;26.50;15.80;;;;;;;10.29;66.63;98821.00;234072;215;140094;-60
2023/11/07 22:02:32;;;;;;;30.10;16.50;;;;;;;10.27;67.08;98823.05;234087;210;137869;-59
2023/11/07 22:07:35;;;;;;;27.70;16.20;;;;;;;10.29;66.75;98829.33;234111;209;149979;-60
2023/11/07 22:12:41;;;;;;;30.00;16.80;;;;;;;10.32;66.24;98828.02;233708;214;139164;-60
2023/11/07 22:17:47;;;;;;;;;;;;;;;10.30;66.89;98822.89;234118;215;137406;-59
2023/11/07 22:22:50;;;;;;;26.40;14.90;;;;;;;10.22;66.74;98821.58;234144;214;150310;-61
2023/11/07 22:27:54;;;;;;;29.90;16.60;;;;;;;10.20;66.72;98823.84;234184;213;138877;-61
2023/11/07 22:32:57;;;;;;;32.00;16.70;;;;;;;10.19;66.82;98817.70;234113;214;138267;-62
2023/11/07 22:38:02;;;;;;;30.10;15.80;;;;;;;10.17;67.52;98818.89;234166;213;150078;-62
2023/11/07 22:43:06;;;;;;;30.80;16.40;;;;;;;10.12;67.67;98816.36;234038;214;140034;-59
2023/11/07 22:48:09;;;;;;;32.20;17.60;;;;;;;10.19;67.63;98811.84;234134;209;137888;-60
2023/11/07 22:53:13;;;;;;;30.30;17.50;;;;;;;10.31;66.67;98808.98;234162;214;149473;-59
2023/11/07 22:58:16;;;;;;;29.80;17.00;;;;;;;10.39;66.10;98802.06;234342;214;139037;-60
2023/11/07 23:03:20;;;;;;;29.20;17.20;;;;;;;10.43;66.79;98798.46;234102;215;138526;-60
2023/11/07 23:08:23;;;;;;;30.30;17.60;;;;;;;10.40;66.55;98793.65;234165;210;150324;-60
2023/11/07 23:13:29;;;;;;;32.00;17.80;;;;;;;10.34;67.40;98793.50;234047;216;140101;-60
2023/11/07 23:18:32;;;;;;;27.30;16.70;;;;;;;10.30;67.75;98784.27;233603;216;137590;-60
2023/11/07 23:23:36;;;;;;;27.20;15.90;;;;;;;10.24;67.70;98775.72;234149;215;150357;-61